createdAt,value
2022-08-02T00:00:55.354Z,18.68
2022-08-02T00:03:24.521Z,18.73
2022-08-02T00:05:53.146Z,18.76
2022-08-02T00:08:20.757Z,18.75
2022-08-02T00:10:47.354Z,18.69
2022-08-02T00:13:13.969Z,18.64
2022-08-02T00:15:40.507Z,18.69
2022-08-02T00:18:07.026Z,18.67
2022-08-02T00:20:33.622Z,18.58
2022-08-02T00:23:00.090Z,18.50
2022-08-02T00:25:26.683Z,18.47
2022-08-02T00:27:53.155Z,18.47
2022-08-02T00:30:19.712Z,18.45
2022-08-02T00:32:46.372Z,18.47
2022-08-02T00:35:12.995Z,18.44
2022-08-02T00:37:40.640Z,18.40
2022-08-02T00:40:09.141Z,18.35
2022-08-02T00:42:35.799Z,18.36
2022-08-02T00:45:02.462Z,18.37
2022-08-02T00:47:28.978Z,18.39
2022-08-02T00:49:55.670Z,18.41
2022-08-02T00:52:23.764Z,18.44
2022-08-02T00:54:50.634Z,18.50
2022-08-02T00:57:17.200Z,18.47
2022-08-02T00:59:43.701Z,18.43
2022-08-02T01:02:10.577Z,18.45
2022-08-02T01:04:37.325Z,18.48
2022-08-02T01:07:12.761Z,18.52
2022-08-02T01:09:44.409Z,18.46
2022-08-02T01:12:11.767Z,18.45
2022-08-02T01:14:40.031Z,18.42
2022-08-02T01:17:31.835Z,18.41
2022-08-02T01:20:25.960Z,18.40
2022-08-02T01:23:19.741Z,18.39
2022-08-02T01:26:14.022Z,18.44
2022-08-02T01:28:43.906Z,18.44
2022-08-02T01:31:19.240Z,18.46
2022-08-02T01:34:13.868Z,18.49
2022-08-02T01:36:42.190Z,18.41
2022-08-02T01:39:26.958Z,18.36
2022-08-02T01:41:59.760Z,18.32
2022-08-02T01:44:29.060Z,18.28
2022-08-02T01:46:58.831Z,18.23
2022-08-02T01:49:26.255Z,18.22
2022-08-02T01:52:12.195Z,18.17
2022-08-02T01:54:40.241Z,18.19
2022-08-02T01:57:10.368Z,18.17
2022-08-02T01:59:38.028Z,18.18
2022-08-02T02:02:08.123Z,18.19
2022-08-02T02:04:35.837Z,18.15
2022-08-02T02:07:03.259Z,18.15
2022-08-02T02:09:31.146Z,18.17
2022-08-02T02:12:06.076Z,18.14
2022-08-02T02:14:40.204Z,18.12
2022-08-02T02:17:07.151Z,18.09
2022-08-02T02:19:34.442Z,18.08
2022-08-02T02:22:01.582Z,18.11
2022-08-02T02:24:28.901Z,18.09
2022-08-02T02:26:55.591Z,18.06
2022-08-02T02:29:26.035Z,18.03
2022-08-02T02:31:54.028Z,17.98
2022-08-02T02:34:29.291Z,17.92
2022-08-02T02:36:58.677Z,17.97
2022-08-02T02:39:27.037Z,17.91
2022-08-02T02:41:55.081Z,17.95
2022-08-02T02:44:22.764Z,17.86
2022-08-02T02:46:52.543Z,17.82
2022-08-02T02:49:20.459Z,17.82
2022-08-02T02:51:47.870Z,17.84
2022-08-02T02:54:32.101Z,17.84
2022-08-02T02:57:02.809Z,17.85
2022-08-02T02:59:29.532Z,17.89
2022-08-02T03:01:58.087Z,17.93
2022-08-02T03:04:27.343Z,17.97
2022-08-02T03:07:04.084Z,17.99
2022-08-02T03:09:30.676Z,18.00
2022-08-02T03:11:57.604Z,18.02
2022-08-02T03:14:24.230Z,18.04
2022-08-02T03:16:52.973Z,18.04
2022-08-02T03:19:20.866Z,18.03
2022-08-02T03:21:48.665Z,18.05
2022-08-02T03:24:27.819Z,18.06
2022-08-02T03:26:55.604Z,18.05
2022-08-02T03:29:22.090Z,18.03
2022-08-02T03:31:48.729Z,17.99
2022-08-02T03:34:15.334Z,17.99
2022-08-02T03:36:43.033Z,17.87
2022-08-02T03:39:10.824Z,17.86
2022-08-02T03:41:38.234Z,17.88
2022-08-02T03:44:05.495Z,17.84
2022-08-02T03:46:32.561Z,17.78
2022-08-02T03:48:59.256Z,17.75
2022-08-02T03:51:26.511Z,17.76
2022-08-02T03:53:53.292Z,17.80
2022-08-02T03:56:19.947Z,17.80
2022-08-02T03:58:49.287Z,17.82
2022-08-02T04:01:16.364Z,17.76
2022-08-02T04:03:43.196Z,17.75
2022-08-02T04:06:09.696Z,17.64
2022-08-02T04:08:38.427Z,17.56
2022-08-02T04:11:24.507Z,17.52
2022-08-02T04:13:51.085Z,17.48
2022-08-02T04:16:22.902Z,17.51
2022-08-02T04:19:01.196Z,17.49
2022-08-02T04:21:48.983Z,17.51
2022-08-02T04:24:19.120Z,17.47
2022-08-02T04:26:48.799Z,17.47
2022-08-02T04:29:17.321Z,17.45
2022-08-02T04:31:43.988Z,17.43
2022-08-02T04:34:14.783Z,17.43
2022-08-02T04:36:42.164Z,17.45
2022-08-02T04:39:08.820Z,17.49
2022-08-02T04:41:43.897Z,17.54
2022-08-02T04:44:11.839Z,17.55
2022-08-02T04:46:39.380Z,17.61
2022-08-02T04:49:06.588Z,17.73
2022-08-02T04:51:38.315Z,17.82
2022-08-02T04:54:09.551Z,17.91
2022-08-02T04:56:39.502Z,17.98
2022-08-02T04:59:06.774Z,18.05
2022-08-02T05:01:33.656Z,18.12
2022-08-02T05:04:01.121Z,18.19
2022-08-02T05:06:27.634Z,18.21
2022-08-02T05:08:54.191Z,18.27
2022-08-02T05:11:22.259Z,18.35
2022-08-02T05:13:58.993Z,18.44
2022-08-02T05:16:30.927Z,18.33
2022-08-02T05:18:59.549Z,18.31
2022-08-02T05:21:26.186Z,18.30
2022-08-02T05:23:52.647Z,18.34
2022-08-02T05:26:19.251Z,18.28
2022-08-02T05:28:45.713Z,18.39
2022-08-02T05:31:12.425Z,18.42
2022-08-02T05:33:40.755Z,18.38
2022-08-02T05:36:09.375Z,18.36
2022-08-02T05:38:36.770Z,18.36
2022-08-02T05:41:04.340Z,18.32
2022-08-02T05:43:31.121Z,18.32
2022-08-02T05:45:57.774Z,18.38
2022-08-02T05:48:29.289Z,18.47
2022-08-02T05:51:03.825Z,18.52
2022-08-02T05:53:50.092Z,18.57
2022-08-02T05:56:40.899Z,18.60
2022-08-02T05:59:31.225Z,18.54
2022-08-02T06:02:10.207Z,18.61
2022-08-02T06:05:13.279Z,18.63
2022-08-02T06:07:40.869Z,18.59
2022-08-02T06:10:08.462Z,18.68
2022-08-02T06:12:41.614Z,18.75
2022-08-02T06:15:08.449Z,18.81
2022-08-02T06:17:35.000Z,18.93
2022-08-02T06:20:09.089Z,18.97
2022-08-02T06:22:36.989Z,19.00
2022-08-02T06:25:05.230Z,19.08
2022-08-02T06:27:35.131Z,19.06
2022-08-02T06:30:02.756Z,19.16
2022-08-02T06:32:29.325Z,19.29
2022-08-02T06:34:55.850Z,19.29
2022-08-02T06:37:38.595Z,19.33
2022-08-02T06:40:14.610Z,19.40
2022-08-02T06:42:50.009Z,19.45
2022-08-02T06:45:17.011Z,19.48
2022-08-02T06:47:44.019Z,19.48
2022-08-02T06:50:13.509Z,19.52
2022-08-02T06:52:40.308Z,19.57
2022-08-02T06:55:07.393Z,19.63
2022-08-02T06:57:34.312Z,19.62
2022-08-02T07:00:06.628Z,19.62
2022-08-02T07:02:33.039Z,19.61
2022-08-02T07:04:59.963Z,19.75
2022-08-02T07:07:27.208Z,19.79
2022-08-02T07:10:00.154Z,19.77
2022-08-02T07:12:32.136Z,19.71
2022-08-02T07:15:05.707Z,19.80
2022-08-02T07:17:32.906Z,19.93
2022-08-02T07:19:59.990Z,20.03
2022-08-02T07:22:28.155Z,20.03
2022-08-02T07:24:58.943Z,20.05
2022-08-02T07:27:26.079Z,20.12
2022-08-02T07:29:52.577Z,20.24
2022-08-02T07:32:21.506Z,20.39
2022-08-02T07:34:52.919Z,20.47
2022-08-02T07:37:35.582Z,20.48
2022-08-02T07:40:14.882Z,20.50
2022-08-02T07:42:47.180Z,20.51
2022-08-02T07:45:14.295Z,20.57
2022-08-02T07:47:41.854Z,20.50
2022-08-02T07:50:10.026Z,20.49
2022-08-02T07:52:37.271Z,20.58
2022-08-02T07:55:05.107Z,20.69
2022-08-02T07:57:31.938Z,20.71
2022-08-02T07:59:58.703Z,20.69
2022-08-02T08:02:25.268Z,20.66
2022-08-02T08:04:53.151Z,20.64
2022-08-02T08:07:20.242Z,20.72
2022-08-02T08:09:47.506Z,20.81
2022-08-02T08:12:15.670Z,20.88
2022-08-02T08:14:43.762Z,20.89
2022-08-02T08:17:10.235Z,20.84
2022-08-02T08:19:50.777Z,20.84
2022-08-02T08:22:22.291Z,21.01
2022-08-02T08:24:49.344Z,20.96
2022-08-02T08:27:19.692Z,21.11
2022-08-02T08:29:46.391Z,21.21
2022-08-02T08:32:18.080Z,21.23
2022-08-02T08:34:46.165Z,21.20
2022-08-02T08:37:17.188Z,21.18
2022-08-02T08:39:56.963Z,21.25
2022-08-02T08:42:26.473Z,21.36
2022-08-02T08:44:54.883Z,21.42
2022-08-02T08:47:23.245Z,21.43
2022-08-02T08:49:52.747Z,21.39
2022-08-02T08:52:20.123Z,21.38
2022-08-02T08:54:49.759Z,21.39
2022-08-02T08:57:18.105Z,21.63
2022-08-02T08:59:45.859Z,21.68
2022-08-02T09:02:20.421Z,21.78
2022-08-02T09:04:54.700Z,21.81
2022-08-02T09:07:22.181Z,21.80
2022-08-02T09:09:48.733Z,21.84
2022-08-02T09:12:16.179Z,21.88
2022-08-02T09:14:43.152Z,22.00
2022-08-02T09:17:12.557Z,21.92
2022-08-02T09:19:39.976Z,21.89
2022-08-02T09:22:14.680Z,21.96
2022-08-02T09:24:50.055Z,22.01
2022-08-02T09:27:19.143Z,22.02
2022-08-02T09:30:12.637Z,21.99
2022-08-02T09:32:47.783Z,22.08
2022-08-02T09:35:15.285Z,22.13
2022-08-02T09:37:42.787Z,22.25
2022-08-02T09:40:12.302Z,22.44
2022-08-02T09:42:58.193Z,22.55
2022-08-02T09:45:30.585Z,22.46
2022-08-02T09:47:57.084Z,22.53
2022-08-02T09:50:23.622Z,22.67
2022-08-02T09:52:50.189Z,22.56
2022-08-02T09:55:16.807Z,22.64
2022-08-02T09:57:43.392Z,22.61
2022-08-02T10:00:27.020Z,22.50
2022-08-02T10:03:09.183Z,22.49
2022-08-02T10:05:55.970Z,22.56
2022-08-02T10:08:32.649Z,22.53
2022-08-02T10:11:00.690Z,22.50
2022-08-02T10:13:35.268Z,22.55
2022-08-02T10:16:03.543Z,22.51
2022-08-02T10:18:45.629Z,22.68
2022-08-02T10:21:20.684Z,22.96
2022-08-02T10:23:48.448Z,22.97
2022-08-02T10:26:16.786Z,22.99
2022-08-02T10:28:45.919Z,23.00
2022-08-02T10:31:15.142Z,23.03
2022-08-02T10:33:42.082Z,23.07
2022-08-02T10:36:09.015Z,22.99
2022-08-02T10:38:36.181Z,22.96
2022-08-02T10:41:03.251Z,23.02
2022-08-02T10:43:32.770Z,22.98
2022-08-02T10:46:28.666Z,23.01
2022-08-02T10:52:01.861Z,22.81
2022-08-02T10:54:31.393Z,22.72
2022-08-02T10:56:59.354Z,22.68
2022-08-02T10:59:38.029Z,22.64
2022-08-02T11:02:05.863Z,22.78
2022-08-02T11:04:33.416Z,22.74
2022-08-02T11:07:10.651Z,22.93
2022-08-02T11:09:37.788Z,22.99
2022-08-02T11:12:15.745Z,22.95
2022-08-02T11:15:00.614Z,22.88
2022-08-02T11:17:38.056Z,22.86
2022-08-02T11:20:10.879Z,22.88
2022-08-02T11:22:38.341Z,22.98
2022-08-02T11:25:23.286Z,23.13
2022-08-02T11:27:54.653Z,23.31
2022-08-02T11:30:26.576Z,23.40
2022-08-02T11:32:58.214Z,23.55
2022-08-02T11:35:32.711Z,23.69
2022-08-02T11:38:13.243Z,23.68
2022-08-02T11:40:39.911Z,23.63
2022-08-02T11:43:19.757Z,23.69
2022-08-02T11:45:46.872Z,23.82
2022-08-02T11:48:13.444Z,23.94
2022-08-02T11:50:40.466Z,24.10
2022-08-02T11:53:14.551Z,24.33
2022-08-02T11:55:41.158Z,24.02
2022-08-02T11:58:09.850Z,24.00
2022-08-02T12:00:38.309Z,23.98
2022-08-02T12:03:06.125Z,23.88
2022-08-02T12:06:04.963Z,23.73
2022-08-02T12:08:25.062Z,23.72
2022-08-02T12:10:52.238Z,23.89
2022-08-02T12:13:18.791Z,23.97
2022-08-02T12:15:46.489Z,23.88
2022-08-02T12:18:36.448Z,23.85
2022-08-02T12:21:03.695Z,23.99
2022-08-02T12:23:30.359Z,24.02
2022-08-02T12:26:07.478Z,24.16
2022-08-02T12:28:35.797Z,24.25
2022-08-02T12:31:02.399Z,24.18
2022-08-02T12:33:44.098Z,24.18
2022-08-02T12:36:21.507Z,24.34
2022-08-02T12:38:55.491Z,24.51
2022-08-02T12:41:31.707Z,24.64
2022-08-02T12:43:59.612Z,24.73
2022-08-02T12:46:26.127Z,24.84
2022-08-02T12:49:16.879Z,24.96
2022-08-02T12:51:50.742Z,24.89
2022-08-02T12:54:30.956Z,24.97
2022-08-02T12:57:10.881Z,24.94
2022-08-02T12:59:39.878Z,24.95
2022-08-02T13:02:09.354Z,24.76
2022-08-02T13:04:36.112Z,25.04
2022-08-02T13:07:03.462Z,25.04
2022-08-02T13:09:36.444Z,24.84
2022-08-02T13:12:03.639Z,24.73
2022-08-02T13:14:30.289Z,24.72
2022-08-02T13:16:56.849Z,24.50
2022-08-02T13:19:38.695Z,24.30
2022-08-02T13:22:05.557Z,24.13
2022-08-02T13:24:40.126Z,24.00
2022-08-02T13:27:20.935Z,23.89
2022-08-02T13:29:48.953Z,23.96
2022-08-02T13:32:16.482Z,24.05
2022-08-02T13:34:43.387Z,24.32
2022-08-02T13:37:10.328Z,24.41
2022-08-02T13:39:36.892Z,24.44
2022-08-02T13:42:03.616Z,24.44
2022-08-02T13:44:30.157Z,24.44
2022-08-02T13:46:56.883Z,24.52
2022-08-02T13:49:49.669Z,24.53
2022-08-02T13:52:10.918Z,24.73
2022-08-02T13:54:37.747Z,24.77
2022-08-02T13:57:04.345Z,25.12
2022-08-02T13:59:57.138Z,25.23
2022-08-02T14:02:18.636Z,25.14
2022-08-02T14:04:45.340Z,25.36
2022-08-02T14:07:11.992Z,25.08
2022-08-02T14:09:38.535Z,24.91
2022-08-02T14:12:07.552Z,24.90
2022-08-02T14:14:34.122Z,24.87
2022-08-02T14:17:01.802Z,24.84
2022-08-02T14:19:28.556Z,24.96
2022-08-02T14:21:55.122Z,24.94
2022-08-02T14:24:39.574Z,24.98
2022-08-02T14:27:06.217Z,24.97
2022-08-02T14:29:33.024Z,24.88
2022-08-02T14:31:59.583Z,24.84
2022-08-02T14:34:26.139Z,24.92
2022-08-02T14:36:55.163Z,24.85
2022-08-02T14:39:21.815Z,24.90
2022-08-02T14:41:58.360Z,25.07
2022-08-02T14:44:26.792Z,25.10
2022-08-02T14:46:53.404Z,25.28
2022-08-02T14:49:25.276Z,25.50
2022-08-02T14:51:54.260Z,25.37
2022-08-02T14:54:27.781Z,25.15
2022-08-02T14:56:56.852Z,25.02
2022-08-02T14:59:23.557Z,25.11
2022-08-02T15:01:50.142Z,25.16
2022-08-02T15:04:16.712Z,25.18
2022-08-02T15:06:43.304Z,25.08
2022-08-02T15:09:09.816Z,25.13
2022-08-02T15:11:47.540Z,25.18
2022-08-02T15:14:25.408Z,25.10
2022-08-02T15:16:58.878Z,25.05
2022-08-02T15:19:56.591Z,25.11
2022-08-02T15:22:16.618Z,25.27
2022-08-02T15:24:45.327Z,25.40
2022-08-02T15:27:13.948Z,25.28
2022-08-02T15:29:41.042Z,25.28
2022-08-02T15:32:07.759Z,25.28
2022-08-02T15:34:34.242Z,25.26
2022-08-02T15:37:00.826Z,25.22
2022-08-02T15:39:27.316Z,25.29
2022-08-02T15:41:53.900Z,25.40
2022-08-02T15:44:20.373Z,25.45
2022-08-02T15:46:46.936Z,25.35
2022-08-02T15:49:13.595Z,25.38
2022-08-02T15:51:42.413Z,25.36
2022-08-02T15:54:10.557Z,25.24
2022-08-02T15:56:37.068Z,25.25
2022-08-02T15:59:03.639Z,25.12
2022-08-02T16:01:37.039Z,25.19
2022-08-02T16:04:05.916Z,25.24
2022-08-02T16:06:32.538Z,25.18
2022-08-02T16:08:59.055Z,25.24
2022-08-02T16:11:25.599Z,25.33
2022-08-02T16:13:55.380Z,25.45
2022-08-02T16:16:33.001Z,25.55
2022-08-02T16:19:46.548Z,25.52
2022-08-02T16:21:48.401Z,25.49
2022-08-02T16:24:15.021Z,25.31
2022-08-02T16:26:41.778Z,25.25
2022-08-02T16:29:08.908Z,25.10
2022-08-02T16:31:40.016Z,25.33
2022-08-02T16:34:08.925Z,25.37
2022-08-02T16:36:35.470Z,25.45
2022-08-02T16:39:04.030Z,25.53
2022-08-02T16:41:50.513Z,25.42
2022-08-02T16:44:17.298Z,25.29
2022-08-02T16:46:45.007Z,25.32
2022-08-02T16:50:03.968Z,25.18
2022-08-02T16:51:58.627Z,25.37
2022-08-02T16:54:25.120Z,25.30
2022-08-02T16:56:53.152Z,25.27
2022-08-02T16:59:19.709Z,25.19
2022-08-02T17:02:11.676Z,25.16
2022-08-02T17:04:38.519Z,25.32
2022-08-02T17:08:05.869Z,25.25
2022-08-02T17:10:03.614Z,25.42
2022-08-02T17:12:33.736Z,25.30
2022-08-02T17:15:00.872Z,25.20
2022-08-02T17:17:37.371Z,25.07
2022-08-02T17:20:08.140Z,24.97
2022-08-02T17:22:36.942Z,24.93
2022-08-02T17:25:04.547Z,25.00
2022-08-02T17:27:31.072Z,24.99
2022-08-02T17:29:59.653Z,25.01
2022-08-02T17:32:26.188Z,24.95
2022-08-02T17:37:42.429Z,24.91
2022-08-02T17:40:09.623Z,24.85
2022-08-02T17:42:38.780Z,24.67
2022-08-02T17:45:16.499Z,24.52
2022-08-02T17:47:43.525Z,24.46
2022-08-02T17:50:30.158Z,24.36
2022-08-02T17:52:57.085Z,24.33
2022-08-02T17:55:23.750Z,24.27
2022-08-02T17:57:57.044Z,24.28
2022-08-02T18:00:35.327Z,24.20
2022-08-02T18:03:05.897Z,24.05
2022-08-02T18:05:40.222Z,23.96
2022-08-02T18:08:21.310Z,23.88
2022-08-02T18:10:48.226Z,23.87
2022-08-02T18:13:14.933Z,23.76
2022-08-02T18:15:41.486Z,23.69
2022-08-02T18:18:12.909Z,23.61
2022-08-02T18:20:41.013Z,23.62
2022-08-02T18:23:10.955Z,23.58
2022-08-02T18:25:46.015Z,23.57
2022-08-02T18:28:14.430Z,23.49
2022-08-02T18:30:42.086Z,23.40
2022-08-02T18:33:57.154Z,23.33
2022-08-02T18:35:55.243Z,23.22
2022-08-02T18:38:22.903Z,23.16
2022-08-02T18:40:50.631Z,23.11
2022-08-02T18:43:18.206Z,23.05
2022-08-02T18:46:05.801Z,22.97
2022-08-02T18:48:31.423Z,22.88
2022-08-02T18:50:58.327Z,22.85
2022-08-02T18:53:39.182Z,22.81
2022-08-02T18:56:10.773Z,22.78
2022-08-02T18:58:48.013Z,22.75
2022-08-02T19:01:15.086Z,22.72
2022-08-02T19:03:58.683Z,22.68
2022-08-02T19:06:27.399Z,22.64
2022-08-02T19:09:05.647Z,22.60
2022-08-02T19:12:28.350Z,22.57
2022-08-02T19:14:55.175Z,22.56
2022-08-02T19:17:53.606Z,22.51
2022-08-02T19:20:10.396Z,22.48
2022-08-02T19:22:46.332Z,22.40
2022-08-02T19:25:14.167Z,22.38
2022-08-02T19:27:42.642Z,22.32
2022-08-02T19:30:14.448Z,22.29
2022-08-02T19:32:59.341Z,22.24
2022-08-02T19:35:30.738Z,22.21
2022-08-02T19:38:06.440Z,22.05
2022-08-02T19:40:33.204Z,21.87
2022-08-02T19:44:23.243Z,21.81
2022-08-02T19:45:50.739Z,21.91
2022-08-02T19:48:23.994Z,22.04
2022-08-02T19:50:56.773Z,22.05
2022-08-02T19:53:29.079Z,21.91
2022-08-02T19:56:12.291Z,21.84
2022-08-02T19:58:39.695Z,21.88
2022-08-02T20:01:16.490Z,21.91
2022-08-02T20:03:51.520Z,21.99
2022-08-02T20:06:19.811Z,22.04
2022-08-02T20:08:59.393Z,22.09
2022-08-02T20:11:27.884Z,22.12
2022-08-02T20:13:54.500Z,22.11
2022-08-02T20:16:28.246Z,22.10
2022-08-02T20:18:59.793Z,22.14
2022-08-02T20:21:35.706Z,22.10
2022-08-02T20:24:06.025Z,22.09
2022-08-02T20:26:32.665Z,22.09
2022-08-02T20:29:03.512Z,22.07
2022-08-02T20:31:30.449Z,22.05
2022-08-02T20:33:57.292Z,21.98
2022-08-02T20:36:25.232Z,22.00
2022-08-02T20:38:51.885Z,21.98
2022-08-02T20:41:21.369Z,21.93
2022-08-02T20:43:48.845Z,21.88
2022-08-02T20:46:15.574Z,21.84
2022-08-02T20:48:42.176Z,21.82
2022-08-02T20:51:12.155Z,21.84
2022-08-02T20:53:55.259Z,21.85
2022-08-02T20:56:23.604Z,21.87
2022-08-02T20:58:51.921Z,21.84
2022-08-02T21:04:06.297Z,21.92
2022-08-02T21:06:32.986Z,21.83
2022-08-02T21:08:59.694Z,21.81
2022-08-02T21:11:33.477Z,21.69
2022-08-02T21:14:07.252Z,21.57
2022-08-02T21:16:36.805Z,21.53
2022-08-02T21:19:08.084Z,21.53
2022-08-02T21:21:36.843Z,21.48
2022-08-02T21:24:03.819Z,21.44
2022-08-02T21:26:32.507Z,21.42
2022-08-02T21:29:03.757Z,21.38
2022-08-02T21:31:33.364Z,21.36
2022-08-02T21:34:02.760Z,21.35
2022-08-02T21:36:32.609Z,21.32
2022-08-02T21:39:08.781Z,21.30
2022-08-02T21:41:38.996Z,21.27
2022-08-02T21:44:13.529Z,21.24
2022-08-02T21:46:44.512Z,21.22
2022-08-02T21:49:12.463Z,21.21
2022-08-02T21:51:40.215Z,21.21
2022-08-02T21:54:18.666Z,21.19
2022-08-02T21:56:52.209Z,21.20
2022-08-02T21:59:25.834Z,21.14
2022-08-02T22:01:57.550Z,21.16
2022-08-02T22:04:26.659Z,21.05
2022-08-02T22:06:54.841Z,21.01
2022-08-02T22:09:44.380Z,20.95
2022-08-02T22:12:10.261Z,20.89
2022-08-02T22:14:39.861Z,20.83
2022-08-02T22:17:13.782Z,20.77
2022-08-02T22:19:50.997Z,20.77
2022-08-02T22:22:28.096Z,20.71
2022-08-02T22:24:57.131Z,20.66
2022-08-02T22:28:37.311Z,20.63
2022-08-02T22:30:11.322Z,20.61
2022-08-02T22:32:56.383Z,20.56
2022-08-02T22:35:22.994Z,20.56
2022-08-02T22:38:14.612Z,20.52
2022-08-02T22:40:36.023Z,20.50
2022-08-02T22:43:02.590Z,20.46
2022-08-02T22:45:29.561Z,20.44
2022-08-02T22:47:58.830Z,20.38
2022-08-02T22:50:26.984Z,20.36
2022-08-02T22:52:53.917Z,20.36
2022-08-02T22:55:21.475Z,20.31
2022-08-02T22:57:56.467Z,20.25
2022-08-02T22:58:39.111Z,24.98
2022-08-02T22:58:56.833Z,21.85
2022-08-02T23:00:24.380Z,20.22
2022-08-02T23:02:50.993Z,20.25
2022-08-02T23:05:18.101Z,20.22
2022-08-02T23:07:44.629Z,20.20
2022-08-02T23:10:11.167Z,20.18
2022-08-02T23:12:37.708Z,20.14
2022-08-02T23:15:04.550Z,20.10
2022-08-02T23:17:49.786Z,20.01
2022-08-02T23:20:19.756Z,20.04
2022-08-02T23:22:46.397Z,20.07
2022-08-02T23:25:14.491Z,20.01
2022-08-02T23:27:50.427Z,19.99
2022-08-02T23:30:18.133Z,20.03
2022-08-02T23:32:44.722Z,19.94
2022-08-02T23:35:17.093Z,19.86
2022-08-02T23:37:59.463Z,19.80
2022-08-02T23:40:38.694Z,19.74
2022-08-02T23:43:13.699Z,19.71
2022-08-02T23:45:46.072Z,19.68
2022-08-02T23:48:12.877Z,19.68
2022-08-02T23:50:39.569Z,19.64
2022-08-02T23:53:06.143Z,19.60
2022-08-02T23:55:32.706Z,19.59
2022-08-02T23:57:59.502Z,19.61
